Time;durP1;ratioP1;P1;durP2;ratioP2;P2;SDS_P1;SDS_P2;PMS_P1;PMS_P2;Temp;Humidity;BMP_temperature;BMP_pressure;BME280_temperature;BME280_humidity;BME280_pressure;Samples;Min_cycle;Max_cycle;Signal;HPM_P1;HPM_P2
2023/01/20 00:01:39;;;;;;;;;;;;;;;25.48;32.39;94199.28;5022349;28;1695;-71
2023/01/20 00:04:05;;;;;;;;;;;;;;;25.49;32.64;94198.22;4989908;28;1714;-71
2023/01/20 00:06:30;;;;;;;;;;;;;;;25.50;32.92;94221.31;4993240;28;1629;-72
2023/01/20 00:08:57;;;;;;;;;;;;;;;25.50;32.96;94221.31;4982487;28;2051;-72
2023/01/20 00:11:23;;;;;;;;;;;;;;;25.50;33.10;94242.78;5006990;28;1693;-73
2023/01/20 00:13:52;;;;;;;;;;;;;;;25.51;33.32;94241.75;4992268;28;1961;-73
2023/01/20 00:16:17;;;;;;;;;;;;;;;25.53;33.27;94251.16;4993608;28;1714;-73
2023/01/20 00:18:43;;;;;;;;;;;;;;;25.55;32.97;94248.19;4991774;28;1569;-72
2023/01/20 00:21:12;;;;;;;;;;;;;;;25.56;32.85;94231.03;4986454;28;1625;-72
2023/01/20 00:23:37;;;;;;;;;;;;;;;25.56;32.96;94204.19;4993227;28;1709;-72
2023/01/20 00:26:10;;;;;;;;;;;;;;;25.56;33.10;94134.38;5001182;28;1654;-72
2023/01/20 00:28:36;;;;;;;;;;;;;;;25.56;33.12;94123.63;4995697;28;1686;-73
2023/01/20 00:31:16;;;;;;;;;;;;;;;25.57;32.96;94114.47;4984406;28;1634;-74
2023/01/20 00:33:42;;;;;;;;;;;;;;;25.56;33.30;94100.25;4993224;28;1950;-73
2023/01/20 00:36:07;;;;;;;;;;;;;;;25.63;33.32;94085.78;4994237;28;1683;-72
2023/01/20 00:38:33;;;;;;;;;;;;;;;25.68;33.13;94065.13;4999973;28;1725;-72
2023/01/20 00:40:58;;;;;;;;;;;;;;;25.72;33.38;94027.81;5009778;28;1762;-73
2023/01/20 00:43:24;;;;;;;;;;;;;;;25.75;33.32;94036.13;4983486;28;1851;-71
2023/01/20 00:45:49;;;;;;;;;;;;;;;25.78;33.11;94024.88;4999874;28;1704;-72
2023/01/20 00:48:15;;;;;;;;;;;;;;;25.81;33.17;94023.53;5007526;28;1785;-72
2023/01/20 00:50:41;;;;;;;;;;;;;;;25.83;33.15;94028.69;5001957;28;1522;-71
2023/01/20 00:53:06;;;;;;;;;;;;;;;25.83;33.34;94034.06;4986710;28;1333;-71
2023/01/20 00:55:31;;;;;;;;;;;;;;;25.86;33.35;94026.28;5017664;28;1902;-72
2023/01/20 00:57:56;;;;;;;;;;;;;;;25.87;33.39;94024.41;4992626;28;1543;-70
2023/01/20 01:00:22;;;;;;;;;;;;;;;25.85;33.30;94023.88;5004255;28;1843;-70
2023/01/20 01:02:47;;;;;;;;;;;;;;;25.85;33.10;94029.25;4991295;28;954;-70
2023/01/20 01:05:12;;;;;;;;;;;;;;;25.83;33.34;94021.44;4987291;28;1527;-70
2023/01/20 01:07:37;;;;;;;;;;;;;;;25.82;33.32;94019.00;4997813;28;1698;-70
2023/01/20 01:10:03;;;;;;;;;;;;;;;25.81;33.30;94023.53;4995763;28;1656;-71
2023/01/20 01:12:28;;;;;;;;;;;;;;;25.82;33.22;94030.53;4993392;28;1404;-70
2023/01/20 01:14:53;;;;;;;;;;;;;;;25.82;33.42;94024.38;4993489;28;1972;-71
2023/01/20 01:17:21;;;;;;;;;;;;;;;25.79;33.33;94023.81;5003605;28;1802;-71
2023/01/20 01:19:46;;;;;;;;;;;;;;;25.81;33.37;94031.59;5011742;28;1711;-71
2023/01/20 01:22:11;;;;;;;;;;;;;;;25.81;33.55;94026.22;4989723;28;1603;-70
2023/01/20 01:24:37;;;;;;;;;;;;;;;25.82;33.61;94032.44;4990295;28;1435;-71
2023/01/20 01:27:03;;;;;;;;;;;;;;;25.82;33.71;94024.38;4980222;28;1603;-72
2023/01/20 01:29:28;;;;;;;;;;;;;;;25.82;33.63;94030.53;4988589;28;1543;-71
2023/01/20 01:31:54;;;;;;;;;;;;;;;25.84;33.92;94025.72;4995814;28;1640;-71
2023/01/20 01:34:19;;;;;;;;;;;;;;;25.83;33.85;94020.63;4990508;28;1973;-71
2023/01/20 01:36:44;;;;;;;;;;;;;;;25.84;33.66;94016.88;5025574;28;1688;-71
2023/01/20 01:39:09;;;;;;;;;;;;;;;25.84;33.97;94009.59;4991488;28;1491;-71
2023/01/20 01:41:35;;;;;;;;;;;;;;;25.84;33.92;94006.91;5003573;28;1573;-71
2023/01/20 01:44:05;;;;;;;;;;;;;;;25.84;34.00;94003.44;4996726;28;1507;-70
2023/01/20 01:46:31;;;;;;;;;;;;;;;25.83;34.09;94008.00;4993868;28;1409;-70
2023/01/20 01:48:58;;;;;;;;;;;;;;;25.84;33.97;94016.88;4993432;28;1734;-71
2023/01/20 01:51:29;;;;;;;;;;;;;;;25.86;34.14;94020.09;5001610;28;1740;-71
2023/01/20 01:53:59;;;;;;;;;;;;;;;25.85;34.11;94019.31;4996251;28;1902;-71
2023/01/20 01:56:26;;;;;;;;;;;;;;;25.80;34.23;94012.00;4994222;28;1642;-71
2023/01/20 01:58:53;;;;;;;;;;;;;;;25.84;34.26;94011.50;5025750;28;1350;-70
2023/01/20 02:01:19;;;;;;;;;;;;;;;25.85;34.28;94010.44;4984341;28;1731;-71
2023/01/20 02:03:50;;;;;;;;;;;;;;;25.87;34.18;94011.81;4998592;28;1804;-71
2023/01/20 02:06:16;;;;;;;;;;;;;;;25.88;34.32;94017.97;4992026;28;1656;-70
2023/01/20 02:08:42;;;;;;;;;;;;;;;25.88;34.19;94008.03;4997214;28;1658;-71
2023/01/20 02:11:07;;;;;;;;;;;;;;;25.88;34.08;93996.47;5006866;28;1727;-71
2023/01/20 02:13:33;;;;;;;;;;;;;;;25.89;34.21;93987.34;4992458;28;1741;-71
2023/01/20 02:16:05;;;;;;;;;;;;;;;25.88;34.06;93983.03;4992109;28;1969;-71
2023/01/20 02:18:30;;;;;;;;;;;;;;;25.90;34.24;93980.88;4992916;28;1550;-71
2023/01/20 02:21:01;;;;;;;;;;;;;;;25.90;34.33;93978.19;5002354;28;1723;-71
2023/01/20 02:23:45;;;;;;;;;;;;;;;25.89;34.40;93979.28;5003205;28;1663;-70
2023/01/20 02:26:23;;;;;;;;;;;;;;;25.90;34.26;93980.88;5012212;28;1742;-71
2023/01/20 02:29:08;;;;;;;;;;;;;;;25.88;34.52;93978.47;4995570;28;1650;-71
2023/01/20 02:31:42;;;;;;;;;;;;;;;25.88;34.40;93975.78;4989061;28;1540;-70
2023/01/20 02:34:15;;;;;;;;;;;;;;;25.88;34.53;93958.88;4987640;28;1962;-71
2023/01/20 02:36:43;;;;;;;;;;;;;;;25.87;34.60;93947.31;5003289;28;1792;-71
2023/01/20 02:39:15;;;;;;;;;;;;;;;25.87;34.43;93946.47;5012554;28;1685;-71
2023/01/20 02:41:46;;;;;;;;;;;;;;;25.86;34.55;93936.81;4986430;28;1611;-71
2023/01/20 02:44:21;;;;;;;;;;;;;;;25.85;34.59;93927.16;4996938;28;1709;-70
2023/01/20 02:47:08;;;;;;;;;;;;;;;25.84;34.73;93920.16;4993193;28;1553;-71
2023/01/20 02:49:34;;;;;;;;;;;;;;;25.83;34.49;93931.97;4987508;28;1717;-71
2023/01/20 02:52:02;;;;;;;;;;;;;;;25.84;34.80;93929.00;4987496;28;1433;-71
2023/01/20 02:54:29;;;;;;;;;;;;;;;25.86;34.76;93924.19;4992191;28;1902;-71
2023/01/20 02:56:56;;;;;;;;;;;;;;;25.84;34.53;93926.31;4979289;28;1610;-71
2023/01/20 02:59:23;;;;;;;;;;;;;;;25.86;34.78;93924.19;4987783;28;1776;-70
2023/01/20 03:01:55;;;;;;;;;;;;;;;25.85;34.61;93916.41;5019570;28;1529;-71
2023/01/20 03:04:23;;;;;;;;;;;;;;;25.87;34.76;93923.13;4989440;28;1740;-70
2023/01/20 03:06:51;;;;;;;;;;;;;;;25.87;34.75;93935.72;4996364;28;1597;-69
2023/01/20 03:09:19;;;;;;;;;;;;;;;25.88;34.82;93942.75;4983121;28;1705;-70
2023/01/20 03:11:49;;;;;;;;;;;;;;;25.87;34.49;93938.41;4984672;28;1648;-71
2023/01/20 03:14:15;;;;;;;;;;;;;;;25.87;34.80;93946.47;4992474;28;1953;-70
2023/01/20 03:16:41;;;;;;;;;;;;;;;25.88;34.71;93942.75;4992800;28;1802;-70
2023/01/20 03:19:06;;;;;;;;;;;;;;;25.88;34.57;93937.38;5019613;28;1611;-69
2023/01/20 03:21:33;;;;;;;;;;;;;;;25.86;34.85;93939.50;5015552;28;1683;-69
2023/01/20 03:24:02;;;;;;;;;;;;;;;25.84;34.77;93934.38;4994762;28;1707;-70
2023/01/20 03:26:29;;;;;;;;;;;;;;;25.87;34.76;93935.72;4993489;28;1565;-69
2023/01/20 03:28:55;;;;;;;;;;;;;;;25.86;34.90;93934.13;5006107;28;1589;-70
2023/01/20 03:31:23;;;;;;;;;;;;;;;25.86;34.75;93945.69;5000702;28;1741;-69
2023/01/20 03:33:50;;;;;;;;;;;;;;;25.89;34.80;93933.59;5011627;28;1887;-69
2023/01/20 03:36:17;;;;;;;;;;;;;;;25.90;34.65;93937.88;5007374;28;1645;-69
2023/01/20 03:38:43;;;;;;;;;;;;;;;25.89;34.78;93939.78;4997614;28;1484;-69
2023/01/20 03:41:29;;;;;;;;;;;;;;;25.92;34.79;93936.56;5020026;28;1558;-70
2023/01/20 03:43:58;;;;;;;;;;;;;;;25.92;34.85;93933.88;4970201;28;1704;-68
2023/01/20 03:46:28;;;;;;;;;;;;;;;25.92;34.71;93941.13;5005742;28;1660;-68
2023/01/20 03:49:11;;;;;;;;;;;;;;;25.91;34.93;93931.47;4972840;28;870;-68
2023/01/20 03:51:43;;;;;;;;;;;;;;;25.88;34.95;93924.72;4990835;28;1815;-69
2023/01/20 03:54:11;;;;;;;;;;;;;;;25.90;35.12;93913.72;4995178;28;1898;-69
2023/01/20 03:56:41;;;;;;;;;;;;;;;25.91;35.00;93901.91;4993340;28;1739;-69
2023/01/20 03:59:09;;;;;;;;;;;;;;;25.91;34.95;93899.22;5009520;28;1630;-70
2023/01/20 04:01:40;;;;;;;;;;;;;;;25.92;34.96;93906.19;4995898;28;1668;-70
2023/01/20 04:04:09;;;;;;;;;;;;;;;25.91;34.87;93904.59;4995845;28;1454;-69
2023/01/20 04:06:36;;;;;;;;;;;;;;;25.93;34.91;93894.41;4999262;28;1681;-69
2023/01/20 04:09:03;;;;;;;;;;;;;;;25.93;35.13;93907.84;5022624;28;1830;-70
2023/01/20 04:11:28;;;;;;;;;;;;;;;25.93;35.10;93903.25;5004932;28;1521;-70
2023/01/20 04:13:54;;;;;;;;;;;;;;;25.93;35.17;93897.09;4989404;28;1899;-70
2023/01/20 04:16:20;;;;;;;;;;;;;;;25.93;35.13;93883.66;5012931;28;1663;-71
2023/01/20 04:18:46;;;;;;;;;;;;;;;25.92;34.95;93869.38;4991446;28;1559;-69
2023/01/20 04:21:16;;;;;;;;;;;;;;;25.94;35.28;93871.81;4989701;28;1462;-70
2023/01/20 04:23:45;;;;;;;;;;;;;;;25.95;35.29;93857.28;5004568;28;1659;-69
2023/01/20 04:26:10;;;;;;;;;;;;;;;25.95;35.08;93849.22;4987621;28;1693;-70
2023/01/20 04:28:35;;;;;;;;;;;;;;;25.94;34.97;93842.25;4984992;28;1579;-70
2023/01/20 04:31:01;;;;;;;;;;;;;;;25.94;35.22;93850.31;4988286;28;1667;-70
2023/01/20 04:33:26;;;;;;;;;;;;;;;25.95;35.06;93854.59;4988975;28;1601;-70
2023/01/20 04:35:51;;;;;;;;;;;;;;;25.93;35.17;93844.16;4989953;28;1977;-70
2023/01/20 04:38:16;;;;;;;;;;;;;;;25.94;35.26;93845.75;4978021;28;1716;-70
2023/01/20 04:40:57;;;;;;;;;;;;;;;25.93;34.95;93843.34;4976215;28;1731;-69
2023/01/20 04:43:22;;;;;;;;;;;;;;;25.94;35.07;93836.88;5025512;28;1680;-69
2023/01/20 04:45:47;;;;;;;;;;;;;;;25.94;35.59;93851.13;5026065;28;1628;-70
2023/01/20 04:48:13;;;;;;;;;;;;;;;25.93;35.37;93851.41;4994789;28;1552;-70
2023/01/20 04:50:39;;;;;;;;;;;;;;;25.94;35.44;93859.19;4991420;28;1691;-70
2023/01/20 04:53:04;;;;;;;;;;;;;;;25.94;35.34;93850.31;4989795;28;1674;-71
2023/01/20 04:55:31;;;;;;;;;;;;;;;25.94;35.75;93845.75;4991832;28;1922;-70
2023/01/20 04:57:56;;;;;;;;;;;;;;;25.95;35.70;93846.53;5012696;28;1421;-69
2023/01/20 05:00:21;;;;;;;;;;;;;;;25.94;35.50;93834.19;4994706;28;1737;-70
2023/01/20 05:02:46;;;;;;;;;;;;;;;25.94;35.74;93840.38;4994531;28;1478;-69
2023/01/20 05:05:12;;;;;;;;;;;;;;;25.94;35.84;93850.31;4996690;28;1736;-69
2023/01/20 05:07:37;;;;;;;;;;;;;;;25.93;36.03;93857.56;4992845;28;1738;-69
2023/01/20 05:10:02;;;;;;;;;;;;;;;25.93;35.85;93870.22;5025790;28;1763;-69
2023/01/20 05:12:28;;;;;;;;;;;;;;;25.94;35.92;93869.13;4989469;28;1621;-69
2023/01/20 05:14:53;;;;;;;;;;;;;;;25.93;35.81;93868.31;4990622;28;1992;-68
2023/01/20 05:17:19;;;;;;;;;;;;;;;25.94;36.04;93872.63;4992741;28;1783;-70
2023/01/20 05:19:45;;;;;;;;;;;;;;;25.94;35.79;93871.81;5003702;28;1616;-68
2023/01/20 05:22:10;;;;;;;;;;;;;;;25.94;35.92;93880.69;4991797;28;1653;-71
2023/01/20 05:24:35;;;;;;;;;;;;;;;25.96;35.94;93885.81;4983693;28;1611;-70
2023/01/20 05:27:01;;;;;;;;;;;;;;;25.97;35.67;93882.03;4989942;28;1638;-70
2023/01/20 05:29:26;;;;;;;;;;;;;;;25.97;35.95;93898.16;4989951;28;1462;-69
2023/01/20 05:31:52;;;;;;;;;;;;;;;25.97;36.04;93904.31;4992303;28;1492;-71
2023/01/20 05:34:17;;;;;;;;;;;;;;;25.96;35.71;93901.94;4981353;28;2102;-71
2023/01/20 05:36:42;;;;;;;;;;;;;;;25.96;35.71;93891.19;4991766;28;1722;-70
2023/01/20 05:39:07;;;;;;;;;;;;;;;25.95;35.99;93894.91;4989627;28;1779;-70
2023/01/20 05:41:33;;;;;;;;;;;;;;;25.95;35.97;93906.47;4988908;28;1648;-70
2023/01/20 05:43:58;;;;;;;;;;;;;;;25.95;35.81;93927.16;5006799;28;1645;-70
2023/01/20 05:46:23;;;;;;;;;;;;;;;25.97;35.64;93933.09;4984711;28;1574;-71
2023/01/20 05:48:49;;;;;;;;;;;;;;;25.96;35.60;93939.53;5000495;28;1699;-71
2023/01/20 05:51:14;;;;;;;;;;;;;;;25.97;35.56;93925.81;4994046;28;1674;-71
2023/01/20 05:53:39;;;;;;;;;;;;;;;25.93;35.75;93921.25;4998926;28;1684;-71
2023/01/20 05:56:05;;;;;;;;;;;;;;;25.96;35.69;93926.09;5004811;28;1902;-71
2023/01/20 05:58:30;;;;;;;;;;;;;;;26.00;35.84;93908.38;4991840;28;1548;-71
2023/01/20 06:01:05;;;;;;;;;;;;;;;26.01;35.65;93893.84;5024867;28;2021;-70
2023/01/20 06:03:31;;;;;;;;;;;;;;;26.01;35.79;93888.47;4993195;28;1765;-71
2023/01/20 06:06:00;;;;;;;;;;;;;;;26.01;35.86;93900.06;4991357;28;1599;-71
2023/01/20 06:08:25;;;;;;;;;;;;;;;25.99;35.64;93902.19;5015033;28;1825;-71
2023/01/20 06:10:51;;;;;;;;;;;;;;;25.99;35.69;93915.63;4993374;28;1599;-71
2023/01/20 06:13:17;;;;;;;;;;;;;;;26.00;35.80;93922.59;4994273;28;1710;-70
2023/01/20 06:15:42;;;;;;;;;;;;;;;26.01;35.78;93926.09;4995474;28;2017;-70
2023/01/20 06:18:11;;;;;;;;;;;;;;;26.01;35.96;93910.81;4994561;28;1597;-70
2023/01/20 06:20:36;;;;;;;;;;;;;;;26.03;35.94;93910.53;4991309;28;1641;-71
2023/01/20 06:23:02;;;;;;;;;;;;;;;26.01;35.76;93910.81;5010675;28;1889;-70
2023/01/20 06:25:27;;;;;;;;;;;;;;;26.03;35.89;93921.28;5009858;28;1792;-70
2023/01/20 06:27:52;;;;;;;;;;;;;;;26.04;35.89;93928.25;4985502;28;1680;-70
2023/01/20 06:30:18;;;;;;;;;;;;;;;26.05;35.91;93921.00;4987458;28;1566;-70
2023/01/20 06:32:44;;;;;;;;;;;;;;;26.03;35.75;93916.69;5002575;28;1702;-71
2023/01/20 06:35:10;;;;;;;;;;;;;;;26.03;35.91;93934.72;4992460;28;1968;-71
2023/01/20 06:37:35;;;;;;;;;;;;;;;26.03;35.79;93940.06;4992778;28;1511;-71
2023/01/20 06:40:01;;;;;;;;;;;;;;;26.03;36.15;93950.84;5011274;28;1738;-72
2023/01/20 06:42:26;;;;;;;;;;;;;;;26.04;35.75;93936.31;4997421;28;1665;-70
2023/01/20 06:44:51;;;;;;;;;;;;;;;26.02;35.91;93923.16;5000374;28;1717;-72
2023/01/20 06:47:17;;;;;;;;;;;;;;;26.05;35.54;93900.31;4991990;28;1703;-71
2023/01/20 06:49:42;;;;;;;;;;;;;;;26.06;35.72;93885.78;4993540;28;1566;-71
2023/01/20 06:52:08;;;;;;;;;;;;;;;26.00;33.36;93889.56;4986548;28;1853;-74
2023/01/20 06:54:33;;;;;;;;;;;;;;;25.25;31.74;93884.50;4986164;28;1899;-72
2023/01/20 06:56:59;;;;;;;;;;;;;;;24.59;31.55;93866.13;4989076;28;1681;-72
2023/01/20 06:59:24;;;;;;;;;;;;;;;24.11;32.09;93859.84;4991001;28;1413;-72
2023/01/20 07:01:49;;;;;;;;;;;;;;;23.96;32.01;93873.94;5000399;28;1668;-72
2023/01/20 07:04:14;;;;;;;;;;;;;;;23.79;31.62;93859.81;4980040;28;1798;-72
2023/01/20 07:06:40;;;;;;;;;;;;;;;23.63;31.60;93861.53;4988719;28;1796;-72
2023/01/20 07:09:06;;;;;;;;;;;;;;;23.49;31.46;93866.47;4987424;28;1477;-72
2023/01/20 07:11:33;;;;;;;;;;;;;;;23.34;31.43;93879.69;5004106;28;1811;-73
2023/01/20 07:13:59;;;;;;;;;;;;;;;23.20;31.41;93878.44;5008283;28;1991;-72
2023/01/20 07:16:24;;;;;;;;;;;;;;;23.08;31.28;93882.06;5012785;28;1838;-72
2023/01/20 07:18:50;;;;;;;;;;;;;;;22.98;31.26;93868.53;4996009;28;1370;-72
2023/01/20 07:21:15;;;;;;;;;;;;;;;22.85;31.23;93859.00;5022709;28;1507;-70
2023/01/20 07:23:41;;;;;;;;;;;;;;;22.78;31.39;93850.34;4993340;28;1344;-71
2023/01/20 07:26:07;;;;;;;;;;;;;;;22.65;31.50;93859.53;4981185;28;1750;-71
2023/01/20 07:28:33;;;;;;;;;;;;;;;22.50;31.33;93864.66;5002693;28;1638;-71
2023/01/20 07:31:02;;;;;;;;;;;;;;;22.42;31.39;93870.41;5023790;28;1675;-73
2023/01/20 07:33:28;;;;;;;;;;;;;;;22.34;31.53;93860.94;4990091;28;1429;-72
2023/01/20 07:35:53;;;;;;;;;;;;;;;22.27;31.70;93865.63;4991448;28;1898;-72
2023/01/20 07:38:18;;;;;;;;;;;;;;;22.21;31.64;93874.63;4981960;28;1441;-72
2023/01/20 07:40:44;;;;;;;;;;;;;;;22.11;31.67;93869.09;4989839;28;1747;-72
2023/01/20 07:43:09;;;;;;;;;;;;;;;22.09;32.01;93876.56;4996236;28;1606;-72
2023/01/20 07:45:34;;;;;;;;;;;;;;;22.05;31.73;93865.53;5006236;28;1551;-73
2023/01/20 07:48:02;;;;;;;;;;;;;;;22.07;32.24;93860.75;4989493;28;1599;-72
2023/01/20 07:50:27;;;;;;;;;;;;;;;22.02;32.52;93874.81;4997174;28;1786;-71
2023/01/20 07:52:52;;;;;;;;;;;;;;;22.27;32.69;93873.66;4991743;28;1624;-75
2023/01/20 07:55:17;;;;;;;;;;;;;;;22.06;32.15;93893.88;4989178;28;1969;-72
2023/01/20 07:57:43;;;;;;;;;;;;;;;21.90;32.61;93884.78;5018395;28;1528;-72
2023/01/20 08:00:08;;;;;;;;;;;;;;;21.71;32.58;93894.84;4979453;28;1668;-72
2023/01/20 08:02:37;;;;;;;;;;;;;;;21.66;32.86;93902.78;4990524;28;1673;-71
2023/01/20 08:05:03;;;;;;;;;;;;;;;21.55;32.95;93895.63;5022346;28;1250;-72
2023/01/20 08:07:28;;;;;;;;;;;;;;;21.43;33.06;93889.50;5021587;28;1644;-71
2023/01/20 08:09:53;;;;;;;;;;;;;;;21.42;33.18;93885.25;4990971;28;1512;-72
2023/01/20 08:12:18;;;;;;;;;;;;;;;21.48;33.20;93869.06;4981430;28;1809;-72
2023/01/20 08:14:44;;;;;;;;;;;;;;;21.47;32.98;93856.00;4987144;28;2009;-71
2023/01/20 08:17:09;;;;;;;;;;;;;;;21.48;33.18;93850.41;4986810;28;1686;-72
2023/01/20 08:19:34;;;;;;;;;;;;;;;21.48;33.13;93850.41;4990177;28;1449;-72
2023/01/20 08:21:59;;;;;;;;;;;;;;;21.50;33.30;93826.97;4984166;28;1606;-73
2023/01/20 08:24:25;;;;;;;;;;;;;;;21.50;33.13;93837.63;4985281;28;1498;-73
2023/01/20 08:26:50;;;;;;;;;;;;;;;21.52;33.25;93832.06;4991306;28;1315;-72
2023/01/20 08:29:15;;;;;;;;;;;;;;;21.58;32.94;93830.31;4989853;28;1884;-70
2023/01/20 08:31:41;;;;;;;;;;;;;;;21.60;33.09;93831.69;4991184;28;1686;-72
2023/01/20 08:34:06;;;;;;;;;;;;;;;21.63;33.03;93828.53;4980971;28;1911;-72
2023/01/20 08:36:33;;;;;;;;;;;;;;;21.63;32.91;93831.19;4989477;28;1444;-72
2023/01/20 08:39:01;;;;;;;;;;;;;;;21.56;32.82;93818.00;4989167;28;1653;-72
2023/01/20 08:41:27;;;;;;;;;;;;;;;21.53;32.85;93813.13;4990854;28;1448;-72
2023/01/20 08:43:53;;;;;;;;;;;;;;;21.52;32.94;93802.72;5018670;28;1372;-72
2023/01/20 08:46:19;;;;;;;;;;;;;;;21.56;32.88;93799.31;4982418;28;1611;-72
2023/01/20 08:48:45;;;;;;;;;;;;;;;21.58;32.76;93785.75;4990123;28;1442;-73
2023/01/20 08:51:13;;;;;;;;;;;;;;;21.60;32.73;93786.31;4989680;28;1642;-71
2023/01/20 08:53:39;;;;;;;;;;;;;;;21.55;32.66;93799.56;4991735;28;1734;-72
2023/01/20 08:56:04;;;;;;;;;;;;;;;21.55;32.71;93795.03;4980935;28;1895;-72
2023/01/20 08:58:29;;;;;;;;;;;;;;;21.57;32.48;93789.44;4990621;28;1561;-72
2023/01/20 09:00:55;;;;;;;;;;;;;;;21.61;32.83;93793.25;5001908;28;1691;-73
2023/01/20 09:03:20;;;;;;;;;;;;;;;21.78;33.19;93779.94;5001507;28;1527;-72
2023/01/20 09:05:46;;;;;;;;;;;;;;;22.12;33.31;93772.69;4992096;28;1717;-71
2023/01/20 09:08:11;;;;;;;;;;;;;;;22.43;33.00;93781.19;4983622;28;1683;-72
2023/01/20 09:10:36;;;;;;;;;;;;;;;22.66;32.86;93786.28;5001707;28;1640;-72
2023/01/20 09:13:02;;;;;;;;;;;;;;;22.85;32.84;93796.66;4992290;28;1535;-71
2023/01/20 09:15:27;;;;;;;;;;;;;;;23.00;32.65;93793.41;4991249;28;2001;-71
2023/01/20 09:17:52;;;;;;;;;;;;;;;23.11;32.57;93801.31;4986303;28;1024;-71
2023/01/20 09:20:17;;;;;;;;;;;;;;;23.22;32.53;93794.16;4982663;28;1574;-71
2023/01/20 09:22:43;;;;;;;;;;;;;;;23.30;32.35;93783.03;4996331;28;1803;-71
2023/01/20 09:25:08;;;;;;;;;;;;;;;23.39;32.41;93764.63;5011055;28;882;-72
2023/01/20 09:27:34;;;;;;;;;;;;;;;23.45;32.14;93768.19;5002684;28;1503;-72
2023/01/20 09:29:59;;;;;;;;;;;;;;;23.50;32.06;93758.31;4988367;28;1767;-72
2023/01/20 09:32:24;;;;;;;;;;;;;;;23.58;32.14;93763.22;4994052;28;1678;-71
2023/01/20 09:34:49;;;;;;;;;;;;;;;23.62;32.01;93763.50;4999555;28;1903;-71
2023/01/20 09:45:37;;;;;;;;;;;;;;;23.80;32.09;93754.34;4998433;28;1815;-72
2023/01/20 09:48:14;;;;;;;;;;;;;;;23.84;31.87;93758.09;5000442;28;1800;-72
2023/01/20 09:53:49;;;;;;;;;;;;;;;23.82;32.55;93748.72;4973650;28;1736;-70
2023/01/20 09:56:16;;;;;;;;;;;;;;;23.77;32.40;93744.13;4983571;28;1960;-71
2023/01/20 09:59:04;;;;;;;;;;;;;;;23.76;32.53;93731.78;4965851;28;1694;-72
2023/01/20 10:01:35;;;;;;;;;;;;;;;23.72;32.50;93718.13;4974664;28;1585;-71
2023/01/20 10:04:11;;;;;;;;;;;;;;;23.75;32.84;93714.13;4962907;28;1603;-71
2023/01/20 10:06:40;;;;;;;;;;;;;;;23.78;32.88;93714.41;4982979;28;1729;-71
2023/01/20 10:09:21;;;;;;;;;;;;;;;23.80;33.00;93716.84;4984697;28;1716;-72
2023/01/20 10:11:47;;;;;;;;;;;;;;;23.83;33.36;93712.84;4977711;28;1609;-72
2023/01/20 10:14:17;;;;;;;;;;;;;;;23.85;33.36;93703.50;4971709;28;1990;-73
2023/01/20 10:16:47;;;;;;;;;;;;;;;23.89;33.42;93667.09;4977639;28;1715;-72
2023/01/20 10:19:17;;;;;;;;;;;;;;;23.94;33.52;93653.72;4965910;28;1531;-72
2023/01/20 10:21:51;;;;;;;;;;;;;;;23.99;33.57;93664.47;4970373;28;1302;-71
2023/01/20 10:24:23;;;;;;;;;;;;;;;24.02;33.61;93681.88;4971783;28;1672;-72
2023/01/20 10:26:53;;;;;;;;;;;;;;;24.07;33.93;93689.16;4966274;28;1766;-74
2023/01/20 10:29:22;;;;;;;;;;;;;;;24.09;33.90;93687.81;4980159;28;1325;-71
2023/01/20 10:31:55;;;;;;;;;;;;;;;24.11;33.98;93687.59;4985070;28;1501;-70
2023/01/20 10:34:21;;;;;;;;;;;;;;;24.13;34.05;93685.44;4992876;28;1907;-71
2023/01/20 10:36:55;;;;;;;;;;;;;;;24.14;34.14;93687.06;5004975;28;1400;-72
2023/01/20 10:39:46;;;;;;;;;;;;;;;24.14;34.04;93685.19;4990120;28;1421;-72
2023/01/20 10:42:13;;;;;;;;;;;;;;;24.11;34.57;93672.31;4988076;28;1699;-72
2023/01/20 10:44:39;;;;;;;;;;;;;;;24.09;34.31;93690.50;4999035;28;1724;-72
2023/01/20 10:47:22;;;;;;;;;;;;;;;24.08;34.55;93691.59;4991548;28;1591;-72
2023/01/20 10:49:53;;;;;;;;;;;;;;;24.13;34.37;93680.88;4985588;28;1642;-71
2023/01/20 10:52:28;;;;;;;;;;;;;;;24.15;34.36;93680.63;4987892;28;1650;-71
2023/01/20 10:54:59;;;;;;;;;;;;;;;24.20;34.13;93686.81;4113400;28;10000210;-71
2023/01/20 10:57:24;;;;;;;;;;;;;;;24.23;33.95;93688.16;5009713;28;1373;-71
2023/01/20 10:59:52;;;;;;;;;;;;;;;24.23;34.04;93672.91;5008108;28;1635;-71
2023/01/20 11:02:25;;;;;;;;;;;;;;;24.25;33.92;93659.25;4985519;28;1678;-69
2023/01/20 11:05:00;;;;;;;;;;;;;;;24.24;33.98;93657.63;4981516;28;1265;-69
2023/01/20 11:07:26;;;;;;;;;;;;;;;24.28;33.85;93664.09;4988255;28;1166;-70
2023/01/20 11:09:52;;;;;;;;;;;;;;;24.31;33.97;93662.75;4114619;28;10000904;-71
2023/01/20 11:12:26;;;;;;;;;;;;;;;24.31;33.86;93671.59;4869011;28;10000529;-71
2023/01/20 11:14:53;;;;;;;;;;;;;;;24.33;34.09;93682.03;4474630;28;10000698;-72
2023/01/20 11:17:21;;;;;;;;;;;;;;;24.34;33.87;93670.28;4989129;28;1540;-70
2023/01/20 11:19:51;;;;;;;;;;;;;;;24.35;33.99;93663.84;5005980;28;1670;-71
2023/01/20 11:22:36;;;;;;;;;;;;;;;24.43;33.91;93658.00;4996364;28;1714;-70
2023/01/20 11:25:03;;;;;;;;;;;;;;;24.46;33.74;93666.31;5011146;28;1134;-70
2023/01/20 11:27:47;;;;;;;;;;;;;;;24.46;33.66;93654.78;4996634;28;1480;-70
2023/01/20 11:30:25;;;;;;;;;;;;;;;24.43;33.84;93672.22;4971562;28;843;-71
2023/01/20 11:33:15;;;;;;;;;;;;;;;24.44;33.74;93673.00;4967615;28;908;-70
2023/01/20 11:35:55;;;;;;;;;;;;;;;24.42;33.57;93670.56;4972773;28;1902;-70
2023/01/20 11:38:24;;;;;;;;;;;;;;;24.45;33.63;93658.56;4986852;28;1567;-70
2023/01/20 11:40:53;;;;;;;;;;;;;;;24.45;33.59;93659.38;4986566;28;1488;-70
2023/01/20 11:43:47;;;;;;;;;;;;;;;24.45;33.41;93667.41;4990803;28;1956;-71
2023/01/20 11:46:19;;;;;;;;;;;;;;;24.49;33.63;93672.22;4965915;28;1524;-70
2023/01/20 11:48:44;;;;;;;;;;;;;;;24.51;33.35;93689.69;5003051;28;1732;-70
2023/01/20 11:51:19;;;;;;;;;;;;;;;24.51;33.55;93673.59;5228830;23;2027;-71
2023/01/20 11:53:45;;;;;;;;;;;;;;;24.52;33.35;93680.56;5244267;23;1939;-70
2023/01/20 11:56:25;;;;;;;;;;;;;;;24.53;33.32;93687.50;5016985;28;1917;-70
2023/01/20 11:59:00;;;;;;;;;;;;;;;24.54;33.38;93680.31;5026968;28;1657;-70
2023/01/20 12:01:47;;;;;;;;;;;;;;;24.53;33.37;93681.34;5021192;28;1768;-71
2023/01/20 12:04:29;;;;;;;;;;;;;;;24.55;33.25;93696.09;5029061;28;1548;-70
2023/01/20 12:07:01;;;;;;;;;;;;;;;24.55;33.36;93706.84;5021549;28;1665;-72
2023/01/20 12:09:35;;;;;;;;;;;;;;;24.56;33.04;93718.38;5029342;28;1712;-71
2023/01/20 12:12:13;;;;;;;;;;;;;;;24.57;33.04;93728.03;5029146;28;1815;-71
2023/01/20 12:15:00;;;;;;;;;;;;;;;24.56;33.22;93729.91;5028466;28;1985;-70
2023/01/20 12:17:44;;;;;;;;;;;;;;;24.56;33.00;93740.63;5027185;28;1628;-71
2023/01/20 12:20:09;;;;;;;;;;;;;;;24.56;33.12;93729.09;5018694;28;1665;-72
2023/01/20 12:22:42;;;;;;;;;;;;;;;24.56;33.20;93719.19;5026810;28;1650;-71
2023/01/20 12:25:14;;;;;;;;;;;;;;;24.57;33.08;93720.00;5029672;28;1560;-71
2023/01/20 12:27:42;;;;;;;;;;;;;;;24.57;32.95;93715.44;5026134;28;1534;-71
2023/01/20 12:30:31;;;;;;;;;;;;;;;24.58;32.93;93725.06;5019546;28;1957;-71
2023/01/20 12:32:57;;;;;;;;;;;;;;;24.59;33.10;93736.59;5009557;28;1844;-71
2023/01/20 12:35:26;;;;;;;;;;;;;;;24.59;32.86;93745.47;5029555;28;1897;-72
2023/01/20 12:37:55;;;;;;;;;;;;;;;24.60;32.93;93757.81;5029369;28;1388;-71
2023/01/20 12:40:44;;;;;;;;;;;;;;;24.59;32.84;93766.09;5024144;28;1641;-71
2023/01/20 12:43:12;;;;;;;;;;;;;;;24.60;32.93;93771.22;5018336;28;1685;-71
2023/01/20 12:45:49;;;;;;;;;;;;;;;24.60;33.07;93781.94;5029579;28;1706;-70
2023/01/20 12:48:41;;;;;;;;;;;;;;;24.60;32.91;93795.34;5037481;28;1473;-71
2023/01/20 12:51:06;;;;;;;;;;;;;;;24.61;32.96;93794.25;4993890;28;2227;-70
2023/01/20 12:53:37;;;;;;;;;;;;;;;24.61;32.74;93798.81;5240529;23;2022;-72
2023/01/20 12:56:02;;;;;;;;;;;;;;;24.64;32.85;93809.03;5032173;28;1906;-72
2023/01/20 12:58:52;;;;;;;;;;;;;;;24.64;32.91;93814.41;5251399;23;2741;-72
2023/01/20 13:01:35;;;;;;;;;;;;;;;24.62;32.88;93809.31;4988659;28;2010;-71
2023/01/20 13:04:04;;;;;;;;;;;;;;;24.62;32.89;93803.16;4980507;28;1831;-73
2023/01/20 13:06:35;;;;;;;;;;;;;;;24.63;32.96;93810.09;4991600;28;1373;-72
2023/01/20 13:11:35;;;;;;;;;;;;;;;24.64;33.01;93814.41;5116483;22;1912;-72
2023/01/20 13:14:21;;;;;;;;;;;;;;;24.64;32.63;93819.75;5045518;28;1712;-71
2023/01/20 13:19:29;;;;;;;;;;;;;;;24.65;32.70;93827.56;4616174;22;3099;-73
2023/01/20 13:21:57;;;;;;;;;;;;;;;24.64;32.83;93844.69;5047076;28;1703;-73